createdAt,value
2019-02-22T00:00:36.987Z,34.20
2019-02-22T00:01:36.970Z,32.70
2019-02-22T00:02:36.990Z,33.30
2019-02-22T00:03:36.979Z,34.40
2019-02-22T00:04:36.980Z,33.00
2019-02-22T00:05:36.911Z,34.10
2019-02-22T00:06:36.936Z,32.80
2019-02-22T00:07:36.900Z,34.40
2019-02-22T00:08:36.895Z,33.90
2019-02-22T00:09:36.908Z,35.10
2019-02-22T00:10:36.874Z,34.60
2019-02-22T00:11:36.846Z,34.30
2019-02-22T00:12:36.844Z,34.90
2019-02-22T00:13:36.906Z,34.70
2019-02-22T00:14:36.907Z,33.40
2019-02-22T00:15:36.821Z,34.60
2019-02-22T00:16:36.800Z,33.60
2019-02-22T00:17:36.803Z,33.20
2019-02-22T00:18:36.774Z,33.50
2019-02-22T00:19:36.775Z,33.20
2019-02-22T00:20:36.779Z,33.40
2019-02-22T00:21:36.748Z,33.10
2019-02-22T00:22:36.726Z,32.60
2019-02-22T00:23:36.749Z,32.30
2019-02-22T00:24:36.709Z,32.50
2019-02-22T00:25:36.795Z,32.40
2019-02-22T00:26:36.698Z,32.90
2019-02-22T00:27:36.676Z,32.90
2019-02-22T00:28:36.686Z,31.40
2019-02-22T00:29:36.652Z,31.70
2019-02-22T00:30:36.694Z,33.00
2019-02-22T00:31:36.698Z,32.40
2019-02-22T00:32:36.662Z,32.20
2019-02-22T00:33:36.606Z,32.50
2019-02-22T00:34:36.612Z,33.50
2019-02-22T00:35:36.617Z,33.90
2019-02-22T00:36:36.719Z,34.60
2019-02-22T00:37:36.644Z,33.50
2019-02-22T00:38:36.561Z,33.60
2019-02-22T00:41:00.495Z,34.50
2019-02-22T00:41:45.854Z,33.60
2019-02-22T00:42:45.814Z,34.60
2019-02-22T00:43:45.804Z,33.90
2019-02-22T00:44:45.798Z,33.40
2019-02-22T00:45:45.783Z,35.30
2019-02-22T00:46:45.805Z,33.50
2019-02-22T00:47:45.766Z,35.10
2019-02-22T00:48:45.759Z,36.10
2019-02-22T00:49:45.748Z,33.40
2019-02-22T00:50:45.744Z,35.20
2019-02-22T00:51:45.734Z,33.60
2019-02-22T00:52:45.735Z,35.20
2019-02-22T00:53:45.702Z,34.40
2019-02-22T00:54:45.685Z,33.10
2019-02-22T00:55:45.675Z,33.30
2019-02-22T00:56:45.684Z,34.00
2019-02-22T00:57:45.682Z,34.70
2019-02-22T00:58:45.664Z,34.30
2019-02-22T00:59:45.632Z,34.60
2019-02-22T01:00:45.618Z,35.50
2019-02-22T01:01:45.612Z,33.60
2019-02-22T01:02:45.616Z,34.70
2019-02-22T01:03:45.602Z,32.90
2019-02-22T01:04:45.578Z,34.30
2019-02-22T01:05:45.566Z,35.10
2019-02-22T01:06:45.553Z,34.20
2019-02-22T01:07:45.599Z,34.00
2019-02-22T01:08:45.533Z,32.60
2019-02-22T01:09:45.530Z,33.00
2019-02-22T01:10:45.512Z,33.90
2019-02-22T01:11:45.512Z,33.00
2019-02-22T01:12:45.486Z,34.60
2019-02-22T01:13:45.499Z,34.10
2019-02-22T01:14:45.475Z,33.90
2019-02-22T01:15:45.453Z,33.30
2019-02-22T01:16:45.445Z,33.30
2019-02-22T01:17:45.441Z,32.00
2019-02-22T01:18:45.449Z,33.90
2019-02-22T01:19:45.411Z,32.80
2019-02-22T01:20:54.020Z,32.50
2019-02-22T01:21:46.409Z,33.70
2019-02-22T01:22:45.379Z,32.70
2019-02-22T01:23:45.387Z,32.30
2019-02-22T01:24:45.404Z,33.10
2019-02-22T01:25:45.342Z,32.50
2019-02-22T01:26:45.333Z,32.00
2019-02-22T01:27:45.365Z,31.60
2019-02-22T01:28:45.319Z,33.20
2019-02-22T01:29:45.304Z,32.50
2019-02-22T01:30:45.315Z,32.20
2019-02-22T01:31:45.284Z,34.00
2019-02-22T01:32:45.380Z,31.70
2019-02-22T01:33:45.275Z,32.90
2019-02-22T01:34:45.251Z,33.10
2019-02-22T01:35:45.302Z,32.30
2019-02-22T01:36:45.228Z,32.70
2019-02-22T01:37:45.220Z,31.00
2019-02-22T01:38:45.225Z,32.90
2019-02-22T01:39:45.191Z,31.90
2019-02-22T01:40:45.193Z,31.80
2019-02-22T01:41:45.166Z,32.70
2019-02-22T01:42:45.159Z,32.90
2019-02-22T01:43:45.174Z,32.80
2019-02-22T01:44:45.142Z,31.70
2019-02-22T01:45:45.141Z,32.00
2019-02-22T01:46:45.128Z,31.60
2019-02-22T01:47:45.100Z,31.50
2019-02-22T01:48:45.092Z,31.60
2019-02-22T01:49:45.111Z,32.20
2019-02-22T01:50:45.066Z,32.30
2019-02-22T01:51:45.068Z,32.20
2019-02-22T01:52:45.042Z,32.00
2019-02-22T01:53:45.032Z,31.90
2019-02-22T01:54:45.049Z,32.00
2019-02-22T01:55:45.053Z,31.40
2019-02-22T01:56:44.999Z,30.70
2019-02-22T01:57:44.996Z,31.30
2019-02-22T01:58:48.700Z,31.60
2019-02-22T01:59:45.007Z,31.30
2019-02-22T02:00:44.959Z,31.20
2019-02-22T02:01:44.945Z,31.60
2019-02-22T02:02:44.931Z,30.30
2019-02-22T02:03:44.941Z,30.70
2019-02-22T02:04:45.021Z,30.20
2019-02-22T02:05:44.929Z,31.60
2019-02-22T02:06:44.891Z,33.50
2019-02-22T02:07:44.882Z,31.90
2019-02-22T02:08:44.873Z,31.90
2019-02-22T02:09:44.872Z,30.50
2019-02-22T02:10:53.938Z,32.10
2019-02-22T02:11:45.849Z,29.30
2019-02-22T02:12:44.823Z,29.80
2019-02-22T02:13:44.813Z,30.40
2019-02-22T02:14:44.806Z,30.70
2019-02-22T02:15:44.809Z,31.00
2019-02-22T02:16:44.777Z,31.20
2019-02-22T02:17:44.770Z,31.00
2019-02-22T02:18:44.793Z,31.00
2019-02-22T02:19:44.743Z,31.90
2019-02-22T02:20:44.746Z,30.90
2019-02-22T02:21:44.759Z,31.60
2019-02-22T02:22:45.442Z,31.00
2019-02-22T02:23:44.702Z,32.10
2019-02-22T02:24:44.697Z,32.00
2019-02-22T02:25:44.681Z,29.90
2019-02-22T02:26:44.687Z,31.10
2019-02-22T02:27:44.727Z,31.00
2019-02-22T02:28:44.650Z,30.70
2019-02-22T02:29:44.638Z,30.60
2019-02-22T02:30:44.627Z,31.30
2019-02-22T02:31:44.648Z,31.40
2019-02-22T02:32:44.611Z,30.10
2019-02-22T02:33:44.593Z,30.80
2019-02-22T02:34:44.580Z,30.00
2019-02-22T02:35:44.569Z,31.50
2019-02-22T02:36:44.596Z,31.70
2019-02-22T02:37:44.562Z,31.50
2019-02-22T02:38:44.541Z,31.40
2019-02-22T02:39:44.525Z,29.80
2019-02-22T02:40:44.519Z,30.60
2019-02-22T02:41:44.539Z,30.60
2019-02-22T02:42:44.502Z,31.20
2019-02-22T02:43:44.482Z,30.80
2019-02-22T02:44:44.471Z,29.70
2019-02-22T02:45:44.497Z,29.70
2019-02-22T02:46:44.456Z,29.90
2019-02-22T02:47:44.458Z,29.70
2019-02-22T02:48:44.438Z,30.90
2019-02-22T02:49:44.418Z,31.20
2019-02-22T02:50:44.408Z,30.80
2019-02-22T02:51:44.405Z,31.10
2019-02-22T02:52:44.406Z,31.70
2019-02-22T02:53:44.385Z,30.70
2019-02-22T02:54:44.361Z,31.10
2019-02-22T02:55:44.367Z,29.30
2019-02-22T02:56:46.242Z,30.60
2019-02-22T02:57:44.395Z,29.30
2019-02-22T02:58:44.325Z,29.30
2019-02-22T02:59:44.342Z,29.80
2019-02-22T03:00:44.294Z,30.50
2019-02-22T03:01:44.357Z,28.10
2019-02-22T03:02:44.281Z,29.10
2019-02-22T03:03:44.267Z,28.00
2019-02-22T03:04:44.271Z,30.00
2019-02-22T03:05:44.242Z,31.20
2019-02-22T03:06:44.238Z,30.20
2019-02-22T03:07:44.253Z,31.10
2019-02-22T03:08:44.209Z,31.00
2019-02-22T03:09:44.197Z,28.40
2019-02-22T03:10:44.202Z,30.80
2019-02-22T03:11:44.175Z,30.10
2019-02-22T03:12:44.165Z,32.00
2019-02-22T03:13:44.160Z,31.10
2019-02-22T03:14:44.210Z,29.90
2019-02-22T03:15:44.131Z,29.90
2019-02-22T03:16:44.121Z,30.30
2019-02-22T03:17:44.114Z,30.10
2019-02-22T03:18:44.101Z,30.40
2019-02-22T03:19:44.118Z,30.70
2019-02-22T03:20:44.082Z,30.10
2019-02-22T03:21:44.062Z,30.60
2019-02-22T03:22:44.071Z,30.70
2019-02-22T03:23:44.053Z,30.10
2019-02-22T03:24:44.059Z,31.10
2019-02-22T03:25:44.043Z,31.30
2019-02-22T03:26:44.012Z,32.70
2019-02-22T03:27:44.002Z,31.90
2019-02-22T03:28:43.986Z,31.00
2019-02-22T03:29:43.991Z,29.50
2019-02-22T03:30:43.989Z,31.80
2019-02-22T03:31:43.962Z,27.80
2019-02-22T03:32:43.945Z,29.10
2019-02-22T03:33:43.935Z,30.30
2019-02-22T03:34:43.920Z,30.80
2019-02-22T03:35:43.958Z,29.60
2019-02-22T03:36:43.906Z,28.50
2019-02-22T03:37:43.894Z,28.30
2019-02-22T03:38:43.900Z,28.70
2019-02-22T03:39:43.874Z,29.20
2019-02-22T03:40:43.856Z,28.50
2019-02-22T03:41:43.861Z,29.30
2019-02-22T03:42:43.845Z,29.00
2019-02-22T03:43:43.830Z,27.70
2019-02-22T03:44:43.830Z,27.80
2019-02-22T03:45:43.806Z,27.70
2019-02-22T03:46:43.810Z,26.20
2019-02-22T03:47:43.803Z,28.50
2019-02-22T03:48:43.771Z,28.80
2019-02-22T03:49:43.781Z,27.30
2019-02-22T03:50:43.790Z,27.50
2019-02-22T03:51:43.844Z,28.40
2019-02-22T03:52:43.746Z,26.70
2019-02-22T03:53:43.724Z,28.70
2019-02-22T03:54:43.711Z,28.50
2019-02-22T03:55:43.694Z,26.10
2019-02-22T03:56:43.680Z,28.70
2019-02-22T03:57:43.695Z,29.60
2019-02-22T03:58:43.689Z,29.60
2019-02-22T03:59:43.658Z,29.10
2019-02-22T04:00:43.647Z,30.30
2019-02-22T04:01:43.643Z,29.50
2019-02-22T04:02:43.637Z,30.20
2019-02-22T04:03:43.603Z,30.60
2019-02-22T04:04:43.595Z,30.90
2019-02-22T04:05:43.594Z,32.10
2019-02-22T04:06:43.571Z,30.40
2019-02-22T04:07:43.579Z,30.00
2019-02-22T04:08:43.557Z,30.00
2019-02-22T04:09:43.540Z,31.00
2019-02-22T04:10:43.533Z,32.50
2019-02-22T04:11:46.042Z,31.90
2019-02-22T04:12:43.557Z,31.10
2019-02-22T04:13:43.496Z,33.30
2019-02-22T04:14:43.483Z,32.20
2019-02-22T04:15:43.473Z,29.30
2019-02-22T04:16:43.476Z,30.70
2019-02-22T04:17:43.454Z,30.50
2019-02-22T04:18:43.471Z,28.00
2019-02-22T04:19:43.427Z,26.30
2019-02-22T04:20:43.413Z,26.90
2019-02-22T04:21:43.410Z,26.60
2019-02-22T04:22:44.434Z,28.60
2019-02-22T04:23:43.409Z,29.70
2019-02-22T04:24:43.369Z,29.10
2019-02-22T04:25:43.366Z,29.10
2019-02-22T04:26:43.353Z,29.20
2019-02-22T04:27:43.336Z,29.00
2019-02-22T04:28:43.379Z,30.10
2019-02-22T04:29:43.319Z,28.90
2019-02-22T04:30:43.316Z,25.60
2019-02-22T04:31:43.315Z,24.20
2019-02-22T04:32:43.295Z,24.80
2019-02-22T04:33:43.276Z,24.20
2019-02-22T04:34:43.315Z,24.90
2019-02-22T04:35:43.261Z,25.20
2019-02-22T04:36:43.245Z,25.20
2019-02-22T04:37:43.231Z,24.50
2019-02-22T04:38:43.226Z,22.70
2019-02-22T04:39:43.232Z,25.90
2019-02-22T04:40:43.196Z,24.30
2019-02-22T04:41:43.186Z,24.00
2019-02-22T04:42:43.211Z,25.30
2019-02-22T04:43:43.164Z,23.80
2019-02-22T04:44:43.198Z,24.30
2019-02-22T04:45:43.145Z,26.50
2019-02-22T04:46:43.135Z,23.00
2019-02-22T04:47:43.123Z,24.90
2019-02-22T04:48:43.107Z,25.10
2019-02-22T04:49:43.113Z,25.90
2019-02-22T04:50:43.109Z,24.10
2019-02-22T04:51:43.108Z,24.00
2019-02-22T04:52:43.065Z,26.10
2019-02-22T04:53:43.052Z,24.60
2019-02-22T04:54:43.040Z,25.50
2019-02-22T04:55:43.084Z,25.90
2019-02-22T04:56:43.027Z,25.00
2019-02-22T04:57:43.015Z,24.50
2019-02-22T04:58:42.998Z,26.00
2019-02-22T04:59:42.982Z,26.10
2019-02-22T05:00:43.004Z,25.90
2019-02-22T05:01:42.965Z,25.30
2019-02-22T05:02:42.968Z,25.10
2019-02-22T05:03:42.943Z,25.70
2019-02-22T05:04:42.933Z,26.50
2019-02-22T05:05:42.917Z,24.20
2019-02-22T05:06:42.930Z,26.90
2019-02-22T05:07:42.899Z,25.30
2019-02-22T05:08:42.894Z,25.60
2019-02-22T05:09:42.893Z,24.90
2019-02-22T05:10:42.867Z,26.40
2019-02-22T05:11:42.997Z,26.00
2019-02-22T05:12:42.869Z,26.80
2019-02-22T05:13:42.836Z,26.70
2019-02-22T05:14:42.820Z,25.40
2019-02-22T05:15:42.807Z,25.30
2019-02-22T05:16:42.833Z,23.00
2019-02-22T05:17:42.790Z,24.50
2019-02-22T05:18:42.775Z,26.30
2019-02-22T05:19:42.770Z,27.00
2019-02-22T05:20:42.751Z,22.30
2019-02-22T05:21:42.909Z,24.60
2019-02-22T05:22:42.761Z,23.50
2019-02-22T05:23:42.721Z,25.90
2019-02-22T05:24:42.712Z,24.60
2019-02-22T05:25:42.707Z,22.80
2019-02-22T05:26:42.687Z,24.90
2019-02-22T05:27:42.705Z,22.80
2019-02-22T05:28:42.665Z,26.60
2019-02-22T05:29:42.656Z,22.90
2019-02-22T05:30:42.646Z,23.20
2019-02-22T05:31:42.632Z,23.90
2019-02-22T05:32:42.703Z,24.10
2019-02-22T05:33:42.611Z,22.90
2019-02-22T05:34:42.601Z,21.60
2019-02-22T05:35:42.621Z,21.30
2019-02-22T05:36:44.263Z,21.50
2019-02-22T05:37:42.592Z,21.00
2019-02-22T05:38:42.559Z,18.10
2019-02-22T05:39:42.553Z,19.00
2019-02-22T05:40:42.531Z,18.80
2019-02-22T05:41:42.522Z,20.40
2019-02-22T05:42:42.533Z,19.20
2019-02-22T05:43:43.349Z,18.10
2019-02-22T05:44:42.505Z,17.20
2019-02-22T05:45:42.479Z,17.20
2019-02-22T05:46:42.474Z,17.20
2019-02-22T05:47:42.470Z,18.30
2019-02-22T05:48:42.451Z,17.80
2019-02-22T05:49:42.456Z,18.80
2019-02-22T05:50:42.423Z,19.40
2019-02-22T05:51:42.426Z,17.50
2019-02-22T05:52:42.410Z,17.70
2019-02-22T05:53:42.413Z,18.10
2019-02-22T05:54:42.382Z,19.90
2019-02-22T05:55:44.290Z,18.10
2019-02-22T05:56:42.365Z,18.90
2019-02-22T05:57:42.361Z,19.70
2019-02-22T05:58:42.387Z,19.30
2019-02-22T05:59:42.331Z,20.80
2019-02-22T06:00:42.318Z,20.10
2019-02-22T06:01:42.302Z,20.00
2019-02-22T06:02:42.295Z,20.10
2019-02-22T06:03:42.319Z,19.10
2019-02-22T06:04:42.313Z,18.20
2019-02-22T06:05:42.257Z,20.20
2019-02-22T06:06:42.249Z,19.00
2019-02-22T06:07:42.239Z,18.20
2019-02-22T06:08:42.276Z,20.20
2019-02-22T06:09:42.233Z,20.40
2019-02-22T06:10:42.204Z,18.50
2019-02-22T06:11:42.258Z,19.70
2019-02-22T06:12:42.182Z,21.00
2019-02-22T06:13:42.169Z,20.80
2019-02-22T06:14:42.179Z,20.40
2019-02-22T06:15:42.146Z,21.70
2019-02-22T06:16:42.143Z,21.60
2019-02-22T06:17:42.125Z,20.40
2019-02-22T06:18:42.116Z,19.30
2019-02-22T06:19:42.135Z,20.50
2019-02-22T06:20:42.095Z,20.50
2019-02-22T06:21:42.092Z,20.50
2019-02-22T06:22:42.074Z,20.40
2019-02-22T06:23:42.076Z,21.40
2019-02-22T06:24:42.055Z,21.40
2019-02-22T06:25:42.060Z,19.30
2019-02-22T06:26:42.027Z,21.90
2019-02-22T06:27:42.022Z,21.60
2019-02-22T06:28:42.016Z,20.80
2019-02-22T06:29:41.995Z,19.00
2019-02-22T06:30:42.001Z,20.60
2019-02-22T06:31:41.971Z,20.20
2019-02-22T06:32:42.406Z,19.60
2019-02-22T06:33:41.952Z,18.80
2019-02-22T06:34:41.951Z,20.30
2019-02-22T06:35:41.942Z,17.40
2019-02-22T06:36:41.944Z,18.50
2019-02-22T06:37:41.904Z,18.80
2019-02-22T06:38:41.913Z,17.20
2019-02-22T06:39:41.894Z,16.30
2019-02-22T06:40:41.903Z,16.50
2019-02-22T06:41:41.859Z,17.50
2019-02-22T06:42:45.750Z,16.50
2019-02-22T06:43:41.846Z,17.40
2019-02-22T06:44:41.829Z,16.40
2019-02-22T06:45:41.826Z,15.00
2019-02-22T06:46:41.824Z,14.70
2019-02-22T06:47:41.801Z,15.20
2019-02-22T06:48:41.786Z,15.10
2019-02-22T06:49:44.344Z,13.60
2019-02-22T06:50:41.765Z,15.30
2019-02-22T06:51:41.772Z,14.10
2019-02-22T06:52:41.738Z,14.90
2019-02-22T06:53:41.751Z,14.20
2019-02-22T06:54:41.720Z,13.40
2019-02-22T06:55:41.715Z,15.30
2019-02-22T06:56:41.721Z,13.50
2019-02-22T06:57:41.698Z,13.00
2019-02-22T06:58:41.692Z,12.60
2019-02-22T06:59:41.684Z,13.80
2019-02-22T07:00:41.676Z,13.20
2019-02-22T07:01:41.650Z,13.10
2019-02-22T07:02:41.666Z,13.00
2019-02-22T07:03:41.696Z,13.50
2019-02-22T07:04:41.638Z,13.40
2019-02-22T07:05:41.631Z,13.70
2019-02-22T07:06:41.584Z,13.70
2019-02-22T07:07:41.604Z,14.90
2019-02-22T07:08:41.566Z,13.50
2019-02-22T07:09:41.565Z,13.20
2019-02-22T07:10:41.546Z,14.50
2019-02-22T07:11:41.552Z,12.70
2019-02-22T07:12:41.701Z,14.10
2019-02-22T07:13:41.509Z,14.30
2019-02-22T07:14:41.499Z,14.70
2019-02-22T07:15:41.489Z,13.60
2019-02-22T07:16:41.478Z,12.50
2019-02-22T07:17:41.523Z,14.00
2019-02-22T07:18:41.475Z,14.30
2019-02-22T07:19:41.469Z,12.60
2019-02-22T07:20:41.444Z,13.50
2019-02-22T07:21:52.089Z,12.90
2019-02-22T07:22:42.407Z,13.30
2019-02-22T07:23:41.468Z,13.20
2019-02-22T07:24:41.387Z,14.10
2019-02-22T07:25:41.396Z,13.30
2019-02-22T07:26:41.397Z,14.20
2019-02-22T07:27:41.380Z,14.60
2019-02-22T07:28:41.449Z,13.60
2019-02-22T07:29:41.354Z,12.70
2019-02-22T07:30:41.321Z,13.50
2019-02-22T07:31:41.311Z,13.00
2019-02-22T07:32:41.382Z,14.60
2019-02-22T07:33:41.378Z,13.20
2019-02-22T07:34:41.313Z,13.70
2019-02-22T07:35:41.290Z,13.30
2019-02-22T07:36:41.264Z,13.10
2019-02-22T07:37:41.253Z,13.50
2019-02-22T07:38:41.249Z,12.00
2019-02-22T07:39:41.249Z,12.90
2019-02-22T07:40:41.219Z,12.60
2019-02-22T07:41:41.206Z,11.70
2019-02-22T07:42:41.208Z,10.60
2019-02-22T07:43:41.181Z,10.90
2019-02-22T07:44:41.200Z,11.50
2019-02-22T07:45:41.207Z,10.90
2019-02-22T07:46:41.190Z,10.90
2019-02-22T07:47:41.211Z,10.00
2019-02-22T07:48:41.123Z,10.40
2019-02-22T07:49:41.140Z,10.20
2019-02-22T07:50:41.106Z,10.20
2019-02-22T07:51:41.091Z,10.10
2019-02-22T07:52:41.080Z,10.10
2019-02-22T07:53:41.086Z,10.30
2019-02-22T07:54:41.055Z,10.90
2019-02-22T07:55:41.056Z,10.60
2019-02-22T07:56:41.038Z,10.20
2019-02-22T07:57:41.032Z,9.90
2019-02-22T07:58:41.052Z,10.40
2019-02-22T07:59:41.011Z,10.00
2019-02-22T08:00:41.020Z,10.00
2019-02-22T08:01:47.431Z,10.10
2019-02-22T08:02:41.970Z,10.30
2019-02-22T08:03:40.997Z,10.40
2019-02-22T08:04:40.954Z,10.10
2019-02-22T08:05:40.945Z,10.40
2019-02-22T08:06:42.525Z,8.60
2019-02-22T08:07:40.917Z,9.10
2019-02-22T08:08:40.904Z,8.40
2019-02-22T08:09:40.915Z,8.60
2019-02-22T08:10:40.886Z,8.20
2019-02-22T08:11:40.870Z,8.30
2019-02-22T08:12:40.858Z,8.10
2019-02-22T08:13:40.853Z,8.10
2019-02-22T08:14:40.869Z,7.70
2019-02-22T08:15:40.842Z,7.70
2019-02-22T08:16:40.817Z,8.30
2019-02-22T08:17:40.809Z,8.30
2019-02-22T08:18:40.795Z,8.40
2019-02-22T08:19:40.811Z,8.30
2019-02-22T08:20:40.776Z,8.20
2019-02-22T08:21:40.761Z,9.40
2019-02-22T08:22:40.748Z,8.60
2019-02-22T08:23:40.743Z,8.90
2019-02-22T08:24:40.771Z,8.30
2019-02-22T08:25:40.729Z,8.40
2019-02-22T08:26:40.732Z,8.80
2019-02-22T08:27:52.752Z,8.30
2019-02-22T08:28:41.683Z,8.70
2019-02-22T08:29:40.671Z,8.50
2019-02-22T08:30:40.696Z,8.40
2019-02-22T08:31:40.663Z,8.10
2019-02-22T08:32:40.646Z,8.00
2019-02-22T08:33:40.634Z,8.10
2019-02-22T08:34:40.620Z,8.10
2019-02-22T08:35:40.614Z,9.00
2019-02-22T08:36:40.616Z,8.40
2019-02-22T08:37:40.582Z,8.50
2019-02-22T08:38:40.575Z,8.40
2019-02-22T08:39:40.583Z,9.20
2019-02-22T08:40:40.549Z,9.30
2019-02-22T08:41:40.572Z,8.90
2019-02-22T08:42:40.535Z,9.50
2019-02-22T08:43:40.521Z,9.60
2019-02-22T08:44:40.505Z,9.50
2019-02-22T08:45:40.501Z,9.20
2019-02-22T08:46:40.517Z,9.80
2019-02-22T08:47:40.484Z,10.20
2019-02-22T08:48:40.469Z,10.20
2019-02-22T08:49:40.457Z,10.90
2019-02-22T08:50:40.445Z,11.10
2019-02-22T08:51:40.472Z,10.70
2019-02-22T08:52:40.424Z,11.50
2019-02-22T08:53:40.415Z,10.80
2019-02-22T08:54:46.953Z,11.40
2019-02-22T08:55:41.383Z,11.80
2019-02-22T08:56:40.398Z,12.20
2019-02-22T08:57:40.365Z,12.30
2019-02-22T08:58:40.367Z,12.10
2019-02-22T08:59:40.347Z,12.90
2019-02-22T09:00:40.332Z,13.00
2019-02-22T09:01:40.390Z,13.60
2019-02-22T09:02:40.309Z,14.40
2019-02-22T09:03:49.893Z,13.80
2019-02-22T09:04:41.287Z,14.20
2019-02-22T09:05:40.279Z,14.80
2019-02-22T09:06:40.263Z,15.10
2019-02-22T09:07:40.271Z,13.60
2019-02-22T09:08:40.253Z,14.00
2019-02-22T09:09:40.232Z,17.20
2019-02-22T09:10:40.220Z,16.60
2019-02-22T09:11:40.212Z,15.70
2019-02-22T09:12:40.223Z,15.80
2019-02-22T09:13:43.472Z,15.10
2019-02-22T09:14:40.182Z,15.20
2019-02-22T09:15:40.164Z,16.20
2019-02-22T09:16:40.190Z,14.40
2019-02-22T09:17:40.164Z,14.10
2019-02-22T09:18:40.139Z,13.70
2019-02-22T09:19:40.124Z,14.10
2019-02-22T09:20:40.143Z,13.40
2019-02-22T09:21:40.104Z,12.70
2019-02-22T09:22:40.108Z,13.20
2019-02-22T09:23:40.120Z,13.10
2019-02-22T09:24:40.064Z,13.00
2019-02-22T09:25:40.054Z,13.50
2019-02-22T09:26:40.047Z,13.70
2019-02-22T09:27:40.054Z,12.50
2019-02-22T09:28:40.021Z,12.50
2019-02-22T09:29:40.014Z,12.10
2019-02-22T09:30:39.995Z,12.60
2019-02-22T09:31:39.983Z,12.30
2019-02-22T09:32:39.991Z,11.60
2019-02-22T09:33:39.979Z,12.70
2019-02-22T09:34:39.961Z,10.70
2019-02-22T09:35:39.951Z,10.60
2019-02-22T09:36:39.955Z,9.90
2019-02-22T09:37:39.941Z,9.50
2019-02-22T09:38:39.917Z,10.00
2019-02-22T09:39:39.903Z,9.90
2019-02-22T09:40:39.888Z,10.70
2019-02-22T09:41:39.890Z,8.90
2019-02-22T09:42:39.886Z,9.00
2019-02-22T09:43:39.861Z,9.20
2019-02-22T09:44:39.858Z,8.80
2019-02-22T09:45:39.848Z,8.70
2019-02-22T09:46:39.816Z,9.30
2019-02-22T09:47:39.842Z,9.20
2019-02-22T09:48:39.798Z,9.60
2019-02-22T09:49:39.791Z,9.60
2019-02-22T09:50:39.774Z,9.20
2019-02-22T09:51:41.239Z,9.90
2019-02-22T09:52:39.759Z,9.90
2019-02-22T09:53:39.762Z,9.60
2019-02-22T09:54:39.741Z,10.60
2019-02-22T09:55:39.719Z,10.20
2019-02-22T09:56:39.719Z,9.60
2019-02-22T09:57:39.704Z,9.00
2019-02-22T09:58:39.720Z,9.00
2019-02-22T09:59:39.717Z,8.90
2019-02-22T10:00:39.741Z,8.60
2019-02-22T10:01:39.661Z,8.70
2019-02-22T10:02:39.668Z,8.70
2019-02-22T10:03:39.770Z,8.40
2019-02-22T10:04:39.662Z,8.70
2019-02-22T10:05:39.649Z,9.20
2019-02-22T10:06:39.616Z,8.20
2019-02-22T10:07:39.594Z,8.10
2019-02-22T10:08:39.618Z,8.40
2019-02-22T10:09:39.620Z,8.50
2019-02-22T10:10:39.585Z,8.60
2019-02-22T10:11:39.564Z,8.70
2019-02-22T10:12:39.558Z,8.90
2019-02-22T10:13:39.551Z,8.90
2019-02-22T10:14:39.549Z,9.20
2019-02-22T10:15:39.532Z,8.90
2019-02-22T10:16:39.502Z,8.70
2019-02-22T10:17:39.484Z,8.70
2019-02-22T10:18:39.469Z,8.90
2019-02-22T10:19:39.481Z,9.20
2019-02-22T10:20:39.445Z,8.70
2019-02-22T10:21:39.455Z,8.90
2019-02-22T10:22:39.456Z,10.00
2019-02-22T10:23:39.418Z,9.20
2019-02-22T10:24:39.403Z,8.90
2019-02-22T10:25:39.388Z,9.30
2019-02-22T10:26:39.378Z,9.40
2019-02-22T10:27:39.368Z,9.20
2019-02-22T10:28:39.387Z,9.10
2019-02-22T10:29:39.355Z,9.00
2019-02-22T10:30:39.336Z,9.20
2019-02-22T10:31:39.321Z,9.10
2019-02-22T10:32:39.318Z,9.00
2019-02-22T10:33:39.326Z,9.00
2019-02-22T10:34:39.296Z,9.50
2019-02-22T10:35:39.279Z,9.60
2019-02-22T10:36:45.078Z,9.90
2019-02-22T10:37:40.261Z,10.00
2019-02-22T10:38:39.265Z,10.30
2019-02-22T10:39:39.269Z,9.60
2019-02-22T10:40:39.459Z,10.00
2019-02-22T10:41:39.220Z,9.60
2019-02-22T10:42:39.212Z,9.30
2019-02-22T10:43:39.190Z,9.00
2019-02-22T10:44:39.180Z,9.00
2019-02-22T10:45:39.191Z,9.00
2019-02-22T10:46:39.156Z,8.50
2019-02-22T10:47:39.147Z,9.30
2019-02-22T10:48:39.137Z,9.50
2019-02-22T10:49:39.122Z,7.80
2019-02-22T10:50:39.141Z,7.40
2019-02-22T10:51:39.106Z,7.30
2019-02-22T10:52:39.093Z,7.00
2019-02-22T10:53:39.079Z,6.80
2019-02-22T10:54:39.074Z,6.70
2019-02-22T10:55:39.089Z,6.50
2019-02-22T10:56:39.664Z,5.80
2019-02-22T10:57:39.044Z,5.80
2019-02-22T10:58:39.033Z,5.10
2019-02-22T10:59:39.020Z,5.20
2019-02-22T11:00:39.010Z,5.20
2019-02-22T11:01:39.020Z,5.20
2019-02-22T11:02:38.990Z,5.00
2019-02-22T11:03:39.051Z,5.10
2019-02-22T11:04:38.968Z,5.10
2019-02-22T11:05:38.949Z,4.90
2019-02-22T11:06:38.981Z,4.90
2019-02-22T11:07:38.937Z,5.60
2019-02-22T11:08:38.925Z,5.10
2019-02-22T11:09:38.908Z,5.00
2019-02-22T11:10:38.898Z,4.70
2019-02-22T11:11:38.921Z,4.50
2019-02-22T11:12:38.877Z,4.70
2019-02-22T11:13:38.894Z,4.40
2019-02-22T11:14:38.856Z,4.30
2019-02-22T11:15:38.843Z,4.70
2019-02-22T11:16:38.833Z,4.40
2019-02-22T11:17:38.822Z,4.30
2019-02-22T11:18:39.495Z,4.60
2019-02-22T11:19:38.866Z,4.50
2019-02-22T11:20:38.792Z,4.50
2019-02-22T11:21:38.782Z,4.50
2019-02-22T11:22:38.766Z,4.50
2019-02-22T11:23:38.755Z,4.60
2019-02-22T11:24:38.769Z,5.10
2019-02-22T11:25:38.743Z,4.50
2019-02-22T11:26:38.752Z,4.80
2019-02-22T11:27:38.724Z,5.30
2019-02-22T11:28:38.708Z,5.50
2019-02-22T11:29:38.713Z,6.00
2019-02-22T11:30:38.682Z,6.00
2019-02-22T11:31:38.727Z,6.10
2019-02-22T11:32:38.661Z,6.10
2019-02-22T11:33:38.654Z,6.30
2019-02-22T11:34:38.675Z,6.70
2019-02-22T11:35:38.629Z,6.30
2019-02-22T11:36:38.619Z,6.70
2019-02-22T11:37:38.612Z,6.40
2019-02-22T11:38:38.607Z,6.30
2019-02-22T11:39:38.585Z,6.60
2019-02-22T11:40:38.589Z,6.40
2019-02-22T11:41:38.571Z,6.50
2019-02-22T11:42:38.557Z,6.40
2019-02-22T11:43:38.558Z,6.70
2019-02-22T11:44:40.449Z,7.10
2019-02-22T11:45:38.541Z,7.40
2019-02-22T11:46:38.509Z,7.20
2019-02-22T11:47:38.505Z,6.70
2019-02-22T11:48:38.495Z,6.80
2019-02-22T11:49:38.475Z,6.80
2019-02-22T11:50:38.496Z,7.30
2019-02-22T11:51:38.451Z,7.00
2019-02-22T11:52:38.446Z,8.90
2019-02-22T11:53:38.439Z,7.20
2019-02-22T11:54:38.427Z,7.30
2019-02-22T11:55:38.407Z,7.20
2019-02-22T11:56:38.427Z,7.40
2019-02-22T11:57:38.391Z,6.70
2019-02-22T11:58:38.374Z,7.80
2019-02-22T11:59:38.376Z,8.10
2019-02-22T12:00:38.360Z,9.00
2019-02-22T12:01:38.368Z,9.80
2019-02-22T12:02:38.339Z,7.90
2019-02-22T12:03:38.333Z,7.30
2019-02-22T12:04:38.310Z,6.90
2019-02-22T12:05:38.299Z,7.10
2019-02-22T12:06:38.329Z,7.20
2019-02-22T12:07:38.280Z,7.20
2019-02-22T12:08:38.271Z,7.30
2019-02-22T12:09:38.274Z,6.80
2019-02-22T12:10:38.247Z,6.70
2019-02-22T12:11:38.245Z,7.20
2019-02-22T12:12:38.251Z,6.70
2019-02-22T12:13:38.218Z,6.50
2019-02-22T12:14:38.203Z,6.50
2019-02-22T12:15:38.206Z,6.90
2019-02-22T12:16:38.179Z,7.20
2019-02-22T12:17:38.191Z,7.10
2019-02-22T12:18:38.163Z,7.30
2019-02-22T12:19:38.147Z,7.20
2019-02-22T12:20:38.175Z,7.30
2019-02-22T12:21:38.129Z,8.20
2019-02-22T12:22:38.146Z,8.00
2019-02-22T12:23:38.109Z,7.60
2019-02-22T12:24:38.104Z,7.40
2019-02-22T12:25:38.158Z,6.90
2019-02-22T12:26:38.077Z,7.40
2019-02-22T12:27:38.069Z,7.70
2019-02-22T12:28:38.074Z,7.40
2019-02-22T12:29:38.054Z,7.40
2019-02-22T12:30:38.033Z,7.70
2019-02-22T12:31:38.031Z,7.90
2019-02-22T12:32:39.603Z,7.50
2019-02-22T12:33:38.022Z,7.60
2019-02-22T12:34:38.044Z,7.70
2019-02-22T12:35:37.975Z,7.70
2019-02-22T12:36:37.968Z,7.80
2019-02-22T12:37:37.959Z,7.50
2019-02-22T12:38:37.941Z,7.60
2019-02-22T12:39:37.957Z,7.50
2019-02-22T12:40:37.935Z,8.00
2019-02-22T12:41:37.929Z,7.70
2019-02-22T12:42:37.912Z,8.10
2019-02-22T12:43:37.892Z,8.10
2019-02-22T12:44:37.876Z,8.30
2019-02-22T12:45:37.897Z,8.60
2019-02-22T12:46:37.859Z,8.60
2019-02-22T12:47:37.850Z,8.40
2019-02-22T12:48:37.834Z,8.50
2019-02-22T12:49:40.147Z,8.80
2019-02-22T12:50:37.839Z,9.00
2019-02-22T12:51:37.808Z,8.50
2019-02-22T12:52:37.795Z,8.20
2019-02-22T12:53:37.798Z,9.00
2019-02-22T12:54:37.766Z,8.50
2019-02-22T12:55:37.811Z,8.70
2019-02-22T12:56:57.144Z,8.40
2019-02-22T12:57:38.749Z,8.30
2019-02-22T12:58:37.730Z,8.80
2019-02-22T12:59:37.723Z,8.70
2019-02-22T13:00:37.699Z,8.00
2019-02-22T13:01:37.732Z,8.20